createdAt,value
2022-12-28T00:00:33.777Z,1014.42
2022-12-28T00:01:33.997Z,1014.42
2022-12-28T00:02:34.242Z,1014.36
2022-12-28T00:03:34.531Z,1014.40
2022-12-28T00:04:34.792Z,1014.40
2022-12-28T00:05:35.155Z,1014.45
2022-12-28T00:06:35.421Z,1014.44
2022-12-28T00:07:35.726Z,1014.40
2022-12-28T00:08:36.004Z,1014.38
2022-12-28T00:09:36.274Z,1014.34
2022-12-28T00:11:08.524Z,1014.28
2022-12-28T00:11:37.838Z,1014.23
2022-12-28T00:12:37.155Z,1014.23
2022-12-28T00:13:37.476Z,1014.23
2022-12-28T00:14:37.707Z,1014.23
2022-12-28T00:15:38.032Z,1014.22
2022-12-28T00:16:38.359Z,1014.23
2022-12-28T00:17:38.658Z,1014.17
2022-12-28T00:18:38.904Z,1014.18
2022-12-28T00:19:39.222Z,1014.26
2022-12-28T00:20:39.521Z,1014.21
2022-12-28T00:21:39.790Z,1014.26
2022-12-28T00:22:40.075Z,1014.35
2022-12-28T00:23:40.371Z,1014.29
2022-12-28T00:24:40.599Z,1014.25
2022-12-28T00:25:40.928Z,1014.29
2022-12-28T00:26:41.210Z,1014.26
2022-12-28T00:27:41.473Z,1014.27
2022-12-28T00:28:41.809Z,1014.26
2022-12-28T00:29:42.076Z,1014.27
2022-12-28T00:30:42.357Z,1014.27
2022-12-28T00:31:42.684Z,1014.31
2022-12-28T00:32:42.933Z,1014.31
2022-12-28T00:33:43.207Z,1014.26
2022-12-28T00:34:43.457Z,1014.19
2022-12-28T00:35:43.811Z,1014.16
2022-12-28T00:37:09.428Z,1014.11
2022-12-28T00:37:45.323Z,1014.13
2022-12-28T00:38:44.644Z,1014.11
2022-12-28T00:39:44.942Z,1014.08
2022-12-28T00:40:45.247Z,1014.15
2022-12-28T00:41:45.538Z,1014.20
2022-12-28T00:42:45.827Z,1014.22
2022-12-28T00:43:46.144Z,1014.17
2022-12-28T00:44:46.395Z,1014.11
2022-12-28T00:45:46.724Z,1014.05
2022-12-28T00:46:47.012Z,1014.03
2022-12-28T00:47:47.265Z,1014.03
2022-12-28T00:48:47.530Z,1013.94
2022-12-28T00:49:47.830Z,1014.01
2022-12-28T00:50:48.131Z,1013.93
2022-12-28T00:51:48.381Z,1013.90
2022-12-28T00:52:48.649Z,1013.92
2022-12-28T00:53:48.913Z,1013.94
2022-12-28T00:54:49.221Z,1013.95
2022-12-28T00:55:49.559Z,1013.88
2022-12-28T00:56:49.829Z,1013.90
2022-12-28T00:57:50.096Z,1013.89
2022-12-28T00:58:50.376Z,1013.91
2022-12-28T00:59:50.665Z,1013.88
2022-12-28T01:00:50.952Z,1013.86
2022-12-28T01:01:51.252Z,1013.86
2022-12-28T01:02:51.513Z,1013.85
2022-12-28T01:03:51.839Z,1013.86
2022-12-28T01:04:52.141Z,1013.79
2022-12-28T01:05:52.489Z,1013.78
2022-12-28T01:06:52.767Z,1013.72
2022-12-28T01:07:53.017Z,1013.68
2022-12-28T01:08:53.309Z,1013.65
2022-12-28T01:09:53.647Z,1013.58
2022-12-28T01:10:53.927Z,1013.51
2022-12-28T01:11:54.216Z,1013.57
2022-12-28T01:12:54.500Z,1013.56
2022-12-28T01:13:54.778Z,1013.52
2022-12-28T01:14:55.043Z,1013.52
2022-12-28T01:15:55.347Z,1013.56
2022-12-28T01:16:55.692Z,1013.52
2022-12-28T01:17:55.948Z,1013.59
2022-12-28T01:18:56.241Z,1013.54
2022-12-28T01:19:56.498Z,1013.53
2022-12-28T01:20:56.837Z,1013.47
2022-12-28T01:21:57.111Z,1013.42
2022-12-28T01:22:57.396Z,1013.42
2022-12-28T01:23:57.674Z,1013.39
2022-12-28T01:24:57.955Z,1013.39
2022-12-28T01:25:58.246Z,1013.34
2022-12-28T01:26:58.494Z,1013.29
2022-12-28T01:27:58.807Z,1013.35
2022-12-28T01:28:59.087Z,1013.30
2022-12-28T01:29:59.359Z,1013.25
2022-12-28T01:30:59.629Z,1013.26
2022-12-28T01:31:59.894Z,1013.25
2022-12-28T01:33:00.217Z,1013.27
2022-12-28T01:34:00.479Z,1013.30
2022-12-28T01:35:00.762Z,1013.27
2022-12-28T01:36:01.055Z,1013.31
2022-12-28T01:37:01.469Z,1013.30
2022-12-28T01:38:01.601Z,1013.29
2022-12-28T01:39:01.854Z,1013.22
2022-12-28T01:40:02.161Z,1013.24
2022-12-28T01:41:02.515Z,1013.27
2022-12-28T01:42:02.774Z,1013.24
2022-12-28T01:43:03.096Z,1013.23
2022-12-28T01:44:03.388Z,1013.20
2022-12-28T01:45:03.664Z,1013.14
2022-12-28T01:46:04.018Z,1013.11
2022-12-28T01:47:04.249Z,1013.09
2022-12-28T01:48:04.501Z,1013.07
2022-12-28T01:49:04.760Z,1013.05
2022-12-28T01:50:05.056Z,1013.04
2022-12-28T01:51:05.368Z,1013.00
2022-12-28T01:52:05.629Z,1013.03
2022-12-28T01:53:05.917Z,1012.99
2022-12-28T01:54:06.207Z,1012.98
2022-12-28T01:55:06.516Z,1012.96
2022-12-28T01:56:06.818Z,1012.96
2022-12-28T01:57:07.098Z,1012.92
2022-12-28T01:58:07.375Z,1012.93
2022-12-28T01:59:07.679Z,1012.88
2022-12-28T02:00:07.936Z,1012.82
2022-12-28T02:01:08.424Z,1012.86
2022-12-28T02:02:08.735Z,1012.80
2022-12-28T02:03:09.113Z,1012.72
2022-12-28T02:04:09.171Z,1012.70
2022-12-28T02:05:09.396Z,1012.71
2022-12-28T02:06:09.720Z,1012.65
2022-12-28T02:07:10.011Z,1012.68
2022-12-28T02:08:10.328Z,1012.61
2022-12-28T02:09:10.653Z,1012.59
2022-12-28T02:10:40.558Z,1012.59
2022-12-28T02:11:12.211Z,1012.59
2022-12-28T02:12:11.424Z,1012.57
2022-12-28T02:13:11.769Z,1012.56
2022-12-28T02:14:11.936Z,1012.51
2022-12-28T02:15:12.243Z,1012.52
2022-12-28T02:16:12.601Z,1012.51
2022-12-28T02:17:12.767Z,1012.48
2022-12-28T02:18:13.044Z,1012.47
2022-12-28T02:19:13.340Z,1012.44
2022-12-28T02:20:13.615Z,1012.42
2022-12-28T02:21:13.929Z,1012.43
2022-12-28T02:22:14.167Z,1012.39
2022-12-28T02:23:14.487Z,1012.35
2022-12-28T02:24:14.752Z,1012.37
2022-12-28T02:25:15.064Z,1012.39
2022-12-28T02:26:15.364Z,1012.42
2022-12-28T02:27:15.639Z,1012.39
2022-12-28T02:28:15.890Z,1012.38
2022-12-28T02:29:16.204Z,1012.40
2022-12-28T02:30:16.488Z,1012.42
2022-12-28T02:31:16.853Z,1012.41
2022-12-28T02:32:16.999Z,1012.35
2022-12-28T02:33:17.268Z,1012.38
2022-12-28T02:34:17.527Z,1012.28
2022-12-28T02:35:17.857Z,1012.30
2022-12-28T02:36:18.855Z,1012.28
2022-12-28T02:37:18.407Z,1012.26
2022-12-28T02:38:18.687Z,1012.20
2022-12-28T02:39:18.944Z,1012.22
2022-12-28T02:40:19.234Z,1012.18
2022-12-28T02:41:19.559Z,1012.14
2022-12-28T02:42:19.801Z,1012.16
2022-12-28T02:43:20.128Z,1012.11
2022-12-28T02:44:20.402Z,1012.15
2022-12-28T02:45:20.687Z,1012.08
2022-12-28T02:46:21.001Z,1012.11
2022-12-28T02:47:21.287Z,1012.16
2022-12-28T02:48:21.521Z,1012.15
2022-12-28T02:49:21.840Z,1012.12
2022-12-28T02:50:22.145Z,1012.13
2022-12-28T02:51:22.476Z,1012.13
2022-12-28T02:52:22.770Z,1012.12
2022-12-28T02:53:23.056Z,1012.12
2022-12-28T02:54:23.332Z,1012.05
2022-12-28T02:55:23.618Z,1012.05
2022-12-28T02:56:23.906Z,1012.06
2022-12-28T02:57:24.164Z,1012.00
2022-12-28T02:58:24.448Z,1011.96
2022-12-28T02:59:24.752Z,1011.96
2022-12-28T03:00:25.056Z,1011.92
2022-12-28T03:01:25.451Z,1011.90
2022-12-28T03:02:25.760Z,1011.80
2022-12-28T03:03:25.933Z,1011.82
2022-12-28T03:04:26.058Z,1011.78
2022-12-28T03:05:26.396Z,1011.70
2022-12-28T03:06:30.201Z,1011.70
2022-12-28T03:07:26.996Z,1011.57
2022-12-28T03:08:27.320Z,1011.65
2022-12-28T03:09:27.622Z,1011.64
2022-12-28T03:10:27.865Z,1011.63
2022-12-28T03:11:28.179Z,1011.67
2022-12-28T03:12:28.478Z,1011.61
2022-12-28T03:13:28.717Z,1011.59
2022-12-28T03:14:29.018Z,1011.56
2022-12-28T03:15:29.339Z,1011.62
2022-12-28T03:16:29.641Z,1011.59
2022-12-28T03:17:29.917Z,1011.56
2022-12-28T03:18:30.192Z,1011.54
2022-12-28T03:19:30.476Z,1011.52
2022-12-28T03:20:30.746Z,1011.48
2022-12-28T03:21:31.049Z,1011.55
2022-12-28T03:22:31.376Z,1011.52
2022-12-28T03:23:31.654Z,1011.52
2022-12-28T03:24:31.933Z,1011.53
2022-12-28T03:25:32.200Z,1011.47
2022-12-28T03:26:32.528Z,1011.45
2022-12-28T03:27:32.784Z,1011.44
2022-12-28T03:28:33.043Z,1011.44
2022-12-28T03:29:33.330Z,1011.38
2022-12-28T03:30:33.655Z,1011.35
2022-12-28T03:31:33.972Z,1011.38
2022-12-28T03:32:34.245Z,1011.36
2022-12-28T03:33:34.517Z,1011.37
2022-12-28T03:34:34.777Z,1011.34
2022-12-28T03:35:35.068Z,1011.33
2022-12-28T03:36:35.374Z,1011.37
2022-12-28T03:37:35.650Z,1011.38
2022-12-28T03:38:35.954Z,1011.36
2022-12-28T03:39:36.191Z,1011.33
2022-12-28T03:40:36.522Z,1011.30
2022-12-28T03:41:36.786Z,1011.36
2022-12-28T03:42:37.067Z,1011.37
2022-12-28T03:43:37.341Z,1011.32
2022-12-28T03:44:37.635Z,1011.32
2022-12-28T03:45:45.013Z,1011.27
2022-12-28T03:46:39.219Z,1011.24
2022-12-28T03:47:38.426Z,1011.23
2022-12-28T03:48:38.700Z,1011.21
2022-12-28T03:49:38.982Z,1011.20
2022-12-28T03:50:39.244Z,1011.19
2022-12-28T03:51:39.618Z,1011.17
2022-12-28T03:52:39.875Z,1011.11
2022-12-28T03:53:40.127Z,1011.10
2022-12-28T03:54:40.454Z,1011.09
2022-12-28T03:55:40.712Z,1011.01
2022-12-28T03:56:41.021Z,1011.06
2022-12-28T03:57:41.308Z,1011.02
2022-12-28T03:58:41.570Z,1010.99
2022-12-28T03:59:41.896Z,1010.99
2022-12-28T04:00:42.179Z,1011.01
2022-12-28T04:01:42.586Z,1011.00
2022-12-28T04:02:42.864Z,1011.01
2022-12-28T04:03:43.035Z,1010.95
2022-12-28T04:04:43.338Z,1010.96
2022-12-28T04:05:43.684Z,1010.86
2022-12-28T04:06:43.965Z,1010.80
2022-12-28T04:07:44.240Z,1010.82
2022-12-28T04:08:44.569Z,1010.79
2022-12-28T04:09:44.822Z,1010.73
2022-12-28T04:10:45.154Z,1010.70
2022-12-28T04:11:45.419Z,1010.71
2022-12-28T04:12:45.670Z,1010.72
2022-12-28T04:13:46.001Z,1010.74
2022-12-28T04:14:46.232Z,1010.73
2022-12-28T04:15:46.587Z,1010.64
2022-12-28T04:16:46.908Z,1010.72
2022-12-28T04:17:47.167Z,1010.67
2022-12-28T04:18:47.413Z,1010.62
2022-12-28T04:19:47.736Z,1010.65
2022-12-28T04:20:48.000Z,1010.63
2022-12-28T04:21:48.352Z,1010.63
2022-12-28T04:22:48.630Z,1010.59
2022-12-28T04:23:48.899Z,1010.59
2022-12-28T04:24:49.165Z,1010.58
2022-12-28T04:25:49.451Z,1010.61
2022-12-28T04:26:49.736Z,1010.58
2022-12-28T04:27:50.005Z,1010.63
2022-12-28T04:28:50.301Z,1010.67
2022-12-28T04:29:50.618Z,1010.64
2022-12-28T04:30:50.863Z,1010.60
2022-12-28T04:31:51.202Z,1010.63
2022-12-28T04:32:51.481Z,1010.61
2022-12-28T04:33:51.721Z,1010.57
2022-12-28T04:34:52.021Z,1010.59
2022-12-28T04:35:52.322Z,1010.59
2022-12-28T04:36:52.624Z,1010.53
2022-12-28T04:37:52.955Z,1010.50
2022-12-28T04:38:53.228Z,1010.52
2022-12-28T04:39:56.259Z,1010.52
2022-12-28T04:40:53.838Z,1010.46
2022-12-28T04:41:54.174Z,1010.50
2022-12-28T04:42:54.447Z,1010.48
2022-12-28T04:43:54.725Z,1010.45
2022-12-28T04:44:54.993Z,1010.51
2022-12-28T04:45:55.283Z,1010.47
2022-12-28T04:46:55.642Z,1010.51
2022-12-28T04:47:55.905Z,1010.48
2022-12-28T04:48:56.195Z,1010.46
2022-12-28T04:49:56.525Z,1010.46
2022-12-28T04:50:56.808Z,1010.47
2022-12-28T04:51:57.140Z,1010.41
2022-12-28T04:52:57.385Z,1010.43
2022-12-28T04:53:57.742Z,1010.40
2022-12-28T04:54:58.041Z,1010.39
2022-12-28T04:55:58.313Z,1010.37
2022-12-28T04:56:58.608Z,1010.38
2022-12-28T04:57:58.852Z,1010.33
2022-12-28T04:58:59.183Z,1010.38
2022-12-28T04:59:59.428Z,1010.38
2022-12-28T05:00:59.797Z,1010.43
2022-12-28T05:02:00.163Z,1010.33
2022-12-28T05:03:00.470Z,1010.38
2022-12-28T05:04:00.551Z,1010.41
2022-12-28T05:05:00.835Z,1010.40
2022-12-28T05:06:01.090Z,1010.34
2022-12-28T05:07:01.397Z,1010.28
2022-12-28T05:08:01.659Z,1010.36
2022-12-28T05:09:01.991Z,1010.33
2022-12-28T05:10:02.351Z,1010.28
2022-12-28T05:11:02.530Z,1010.23
2022-12-28T05:12:02.799Z,1010.32
2022-12-28T05:13:03.055Z,1010.27
2022-12-28T05:14:03.399Z,1010.30
2022-12-28T05:15:03.660Z,1010.30
2022-12-28T05:16:04.041Z,1010.26
2022-12-28T05:17:04.198Z,1010.27
2022-12-28T05:18:04.498Z,1010.23
2022-12-28T05:19:04.769Z,1010.23
2022-12-28T05:20:05.037Z,1010.18
2022-12-28T05:21:05.306Z,1010.16
2022-12-28T05:22:05.585Z,1010.23
2022-12-28T05:23:05.865Z,1010.15
2022-12-28T05:24:06.162Z,1010.16
2022-12-28T05:25:06.414Z,1010.12
2022-12-28T05:26:06.720Z,1010.16
2022-12-28T05:27:07.049Z,1010.16
2022-12-28T05:28:07.331Z,1010.11
2022-12-28T05:29:07.597Z,1010.07
2022-12-28T05:30:07.888Z,1010.11
2022-12-28T05:31:08.173Z,1010.09
2022-12-28T05:32:08.491Z,1010.00
2022-12-28T05:33:08.735Z,1010.04
2022-12-28T05:34:09.053Z,1010.04
2022-12-28T05:35:09.334Z,1010.03
2022-12-28T05:36:09.603Z,1010.02
2022-12-28T05:37:09.962Z,1010.04
2022-12-28T05:38:10.261Z,1010.02
2022-12-28T05:39:10.543Z,1009.99
2022-12-28T05:40:10.805Z,1010.02
2022-12-28T05:41:11.104Z,1009.97
2022-12-28T05:42:11.402Z,1009.95
2022-12-28T05:43:11.712Z,1009.94
2022-12-28T05:44:11.975Z,1009.88
2022-12-28T05:45:12.310Z,1009.85
2022-12-28T05:46:12.806Z,1009.90
2022-12-28T05:47:12.847Z,1009.88
2022-12-28T05:48:13.147Z,1009.89
2022-12-28T05:49:13.406Z,1009.91
2022-12-28T05:50:13.686Z,1009.85
2022-12-28T05:51:13.949Z,1009.84
2022-12-28T05:52:14.285Z,1009.77
2022-12-28T05:53:14.566Z,1009.76
2022-12-28T05:54:14.847Z,1009.76
2022-12-28T05:55:15.123Z,1009.74
2022-12-28T05:56:15.381Z,1009.73
2022-12-28T05:57:15.687Z,1009.70
2022-12-28T05:58:15.936Z,1009.70
2022-12-28T05:59:16.313Z,1009.73
2022-12-28T06:00:16.565Z,1009.66
2022-12-28T06:01:16.944Z,1009.67
2022-12-28T06:02:21.524Z,1009.66
2022-12-28T06:03:18.502Z,1009.66
2022-12-28T06:04:17.722Z,1009.65
2022-12-28T06:05:18.009Z,1009.65
2022-12-28T06:06:18.301Z,1009.70
2022-12-28T06:07:18.585Z,1009.71
2022-12-28T06:08:22.671Z,1009.64
2022-12-28T06:09:19.117Z,1009.57
2022-12-28T06:10:19.374Z,1009.57
2022-12-28T06:11:19.675Z,1009.59
2022-12-28T06:12:20.000Z,1009.63
2022-12-28T06:13:20.256Z,1009.61
2022-12-28T06:14:20.579Z,1009.56
2022-12-28T06:15:20.862Z,1009.54
2022-12-28T06:16:21.184Z,1009.57
2022-12-28T06:17:21.452Z,1009.53
2022-12-28T06:18:21.709Z,1009.51
2022-12-28T06:19:22.032Z,1009.50
2022-12-28T06:20:22.330Z,1009.51
2022-12-28T06:21:22.619Z,1009.53
2022-12-28T06:22:22.908Z,1009.51
2022-12-28T06:23:23.159Z,1009.53
2022-12-28T06:24:23.489Z,1009.48
2022-12-28T06:25:23.764Z,1009.49
2022-12-28T06:26:24.021Z,1009.46
2022-12-28T06:27:24.396Z,1009.48
2022-12-28T06:28:24.663Z,1009.47
2022-12-28T06:29:24.918Z,1009.50
2022-12-28T06:30:25.250Z,1009.49
2022-12-28T06:31:25.577Z,1009.45
2022-12-28T06:32:25.877Z,1009.42
2022-12-28T06:33:26.184Z,1009.46
2022-12-28T06:34:26.461Z,1009.44
2022-12-28T06:35:26.725Z,1009.47
2022-12-28T06:36:27.011Z,1009.41
2022-12-28T06:37:27.304Z,1009.31
2022-12-28T06:38:27.601Z,1009.30
2022-12-28T06:39:27.879Z,1009.37
2022-12-28T06:40:39.463Z,1009.32
2022-12-28T06:41:29.410Z,1009.32
2022-12-28T06:42:28.738Z,1009.29
2022-12-28T06:43:29.035Z,1009.28
2022-12-28T06:44:29.326Z,1009.32
2022-12-28T06:45:29.620Z,1009.37
2022-12-28T06:46:29.925Z,1009.26
2022-12-28T06:47:30.187Z,1009.32
2022-12-28T06:48:30.482Z,1009.24
2022-12-28T06:49:30.746Z,1009.27
2022-12-28T06:50:34.233Z,1009.28
2022-12-28T06:51:32.261Z,1009.26
2022-12-28T06:52:31.614Z,1009.29
2022-12-28T06:53:31.894Z,1009.18
2022-12-28T06:54:32.149Z,1009.24
2022-12-28T06:55:32.476Z,1009.26
2022-12-28T06:56:32.770Z,1009.23
2022-12-28T06:57:33.051Z,1009.29
2022-12-28T06:58:33.323Z,1009.20
2022-12-28T06:59:33.577Z,1009.20
2022-12-28T07:00:33.931Z,1009.20
2022-12-28T07:01:34.450Z,1009.24
2022-12-28T07:02:34.601Z,1009.24
2022-12-28T07:03:34.823Z,1009.21
2022-12-28T07:04:35.153Z,1009.26
2022-12-28T07:05:35.433Z,1009.14
2022-12-28T07:06:35.681Z,1009.24
2022-12-28T07:07:35.988Z,1009.17
2022-12-28T07:08:36.292Z,1009.26
2022-12-28T07:09:36.637Z,1009.26
2022-12-28T07:10:36.894Z,1009.28
2022-12-28T07:11:37.189Z,1009.36
2022-12-28T07:12:37.509Z,1009.36
2022-12-28T07:13:37.777Z,1009.32
2022-12-28T07:14:38.096Z,1009.28
2022-12-28T07:15:38.384Z,1009.29
2022-12-28T07:17:15.000Z,1009.35
2022-12-28T07:18:17.377Z,1009.26
2022-12-28T07:19:15.594Z,1009.30
2022-12-28T07:20:15.921Z,1009.29
2022-12-28T07:21:16.203Z,1009.30
2022-12-28T07:22:16.547Z,1009.32
2022-12-28T07:23:16.879Z,1009.28
2022-12-28T07:24:17.150Z,1009.36
2022-12-28T07:25:17.394Z,1009.30
2022-12-28T07:26:17.707Z,1009.28
2022-12-28T07:27:18.057Z,1009.30
2022-12-28T07:28:18.340Z,1009.25
2022-12-28T07:29:18.660Z,1009.26
2022-12-28T07:30:18.926Z,1009.29
2022-12-28T07:31:19.291Z,1009.22
2022-12-28T07:32:19.569Z,1009.23
2022-12-28T07:33:19.843Z,1009.15
2022-12-28T07:34:20.110Z,1009.23
2022-12-28T07:35:20.435Z,1009.21
2022-12-28T07:36:20.752Z,1009.21
2022-12-28T07:37:21.045Z,1009.20
2022-12-28T07:38:21.834Z,1009.20
2022-12-28T07:39:21.681Z,1009.16
2022-12-28T07:40:21.952Z,1009.23
2022-12-28T07:41:22.267Z,1009.11
2022-12-28T07:42:22.570Z,1009.22
2022-12-28T07:43:22.906Z,1009.25
2022-12-28T07:44:26.605Z,1009.25
2022-12-28T07:45:24.453Z,1009.15
2022-12-28T07:46:23.809Z,1009.21
2022-12-28T07:47:24.144Z,1009.25
2022-12-28T07:48:24.422Z,1009.22
2022-12-28T07:49:24.767Z,1009.17
2022-12-28T07:50:25.058Z,1009.23
2022-12-28T07:51:25.394Z,1009.17
2022-12-28T07:52:25.712Z,1009.18
2022-12-28T07:53:26.070Z,1009.22
2022-12-28T07:54:26.450Z,1009.08
2022-12-28T07:55:26.621Z,1009.18
2022-12-28T07:56:26.935Z,1009.14
2022-12-28T07:57:27.201Z,1009.15
2022-12-28T07:58:27.561Z,1009.25
2022-12-28T07:59:31.140Z,1009.15
2022-12-28T08:00:28.148Z,1009.24
2022-12-28T08:01:28.572Z,1009.23
2022-12-28T08:02:28.879Z,1009.27
2022-12-28T08:03:29.153Z,1009.26
2022-12-28T08:04:29.450Z,1009.29
2022-12-28T08:05:29.771Z,1009.34
2022-12-28T08:06:30.075Z,1009.25
2022-12-28T08:07:30.402Z,1009.31
2022-12-28T08:08:30.707Z,1009.29
2022-12-28T08:09:31.068Z,1009.28
2022-12-28T08:10:31.208Z,1009.25
2022-12-28T08:11:31.570Z,1009.21
2022-12-28T08:12:31.860Z,1009.26
2022-12-28T08:13:32.169Z,1009.26
2022-12-28T08:14:32.490Z,1009.24
2022-12-28T08:15:32.870Z,1009.25
2022-12-28T08:16:33.063Z,1009.23
2022-12-28T08:17:33.360Z,1009.24
2022-12-28T08:18:33.651Z,1009.21
2022-12-28T08:19:33.999Z,1009.22
2022-12-28T08:20:34.272Z,1009.34
2022-12-28T08:21:34.622Z,1009.32
2022-12-28T08:22:34.974Z,1009.24
2022-12-28T08:23:35.288Z,1009.29
2022-12-28T08:24:35.644Z,1009.28
2022-12-28T08:25:36.003Z,1009.25
2022-12-28T08:26:36.170Z,1009.27
2022-12-28T08:27:38.588Z,1009.24
2022-12-28T08:28:36.751Z,1009.19
2022-12-28T08:29:37.075Z,1009.26
2022-12-28T08:30:37.496Z,1009.24
2022-12-28T08:31:37.709Z,1009.24
2022-12-28T08:32:37.984Z,1009.22
2022-12-28T08:33:38.323Z,1009.22
2022-12-28T08:34:38.629Z,1009.28
2022-12-28T08:35:38.931Z,1009.27
2022-12-28T08:36:39.264Z,1009.21
2022-12-28T08:37:39.534Z,1009.22
2022-12-28T08:38:39.889Z,1009.22
2022-12-28T08:39:40.213Z,1009.31
2022-12-28T08:40:40.513Z,1009.19
2022-12-28T08:41:40.808Z,1009.19
2022-12-28T08:42:41.083Z,1009.23
2022-12-28T08:43:41.468Z,1009.20
2022-12-28T08:44:41.768Z,1009.21
2022-12-28T08:45:42.090Z,1009.19
2022-12-28T08:46:42.502Z,1009.15
2022-12-28T08:47:42.609Z,1009.20
2022-12-28T08:48:42.923Z,1009.18
2022-12-28T08:49:43.210Z,1009.15
2022-12-28T08:50:43.534Z,1009.17
2022-12-28T08:51:43.860Z,1009.14
2022-12-28T08:52:44.176Z,1009.15
2022-12-28T08:53:44.562Z,1009.17
2022-12-28T08:54:44.751Z,1009.10
2022-12-28T08:55:45.059Z,1009.11
2022-12-28T08:56:45.423Z,1009.04
2022-12-28T08:57:45.729Z,1009.06
2022-12-28T08:58:46.063Z,1009.09
2022-12-28T08:59:46.388Z,1009.14
2022-12-28T09:00:46.689Z,1009.15
2022-12-28T09:01:47.155Z,1009.18
2022-12-28T09:02:47.453Z,1009.17
2022-12-28T09:03:47.688Z,1009.16
2022-12-28T09:04:47.877Z,1009.22
2022-12-28T09:05:52.705Z,1009.15
2022-12-28T09:06:49.420Z,1009.19
2022-12-28T09:07:48.645Z,1009.22
2022-12-28T09:09:04.845Z,1009.17
2022-12-28T09:09:51.115Z,1009.17
2022-12-28T09:10:49.630Z,1009.20
2022-12-28T09:11:49.915Z,1009.13
2022-12-28T09:12:50.270Z,1009.14
2022-12-28T09:13:50.589Z,1009.13
2022-12-28T09:14:50.901Z,1009.15
2022-12-28T09:15:51.296Z,1009.13
2022-12-28T09:16:51.525Z,1009.11
2022-12-28T09:17:51.814Z,1009.19
2022-12-28T09:18:52.151Z,1009.17
2022-12-28T09:19:52.467Z,1009.15
2022-12-28T09:20:52.774Z,1009.07
2022-12-28T09:21:53.239Z,1009.11
2022-12-28T09:22:53.313Z,1009.13
2022-12-28T09:23:53.683Z,1009.13
2022-12-28T09:24:54.000Z,1009.15
2022-12-28T09:25:54.292Z,1009.15
2022-12-28T09:26:54.759Z,1009.16
2022-12-28T09:27:59.255Z,1009.20
2022-12-28T09:28:55.225Z,1009.19
2022-12-28T09:29:55.550Z,1009.23
2022-12-28T09:30:55.921Z,1009.16
2022-12-28T09:31:56.097Z,1009.16
2022-12-28T09:32:56.495Z,1009.15
2022-12-28T09:34:34.256Z,1009.08
2022-12-28T09:34:58.103Z,1009.14
2022-12-28T09:35:57.381Z,1009.14
2022-12-28T09:36:57.682Z,1009.13
2022-12-28T09:37:57.920Z,1009.14
2022-12-28T09:38:58.265Z,1009.18
2022-12-28T09:40:01.604Z,1009.22
2022-12-28T09:40:58.824Z,1009.23
2022-12-28T09:41:59.176Z,1009.21
2022-12-28T09:42:59.474Z,1009.16
2022-12-28T09:43:59.806Z,1009.19
2022-12-28T09:45:00.140Z,1009.19
2022-12-28T09:46:00.425Z,1009.11
2022-12-28T09:47:00.741Z,1009.12
2022-12-28T09:48:01.007Z,1009.16
2022-12-28T09:49:01.202Z,1009.09
2022-12-28T09:50:01.516Z,1009.14
2022-12-28T09:51:01.831Z,1009.16
2022-12-28T09:52:02.151Z,1009.14
2022-12-28T09:53:02.426Z,1009.13
2022-12-28T09:54:02.820Z,1009.13
2022-12-28T09:55:03.125Z,1009.14
2022-12-28T09:56:03.464Z,1009.10
2022-12-28T09:57:03.780Z,1009.11
2022-12-28T09:58:04.077Z,1009.13
2022-12-28T09:59:04.453Z,1009.17
2022-12-28T10:00:04.789Z,1009.14
2022-12-28T10:01:05.207Z,1009.07
2022-12-28T10:02:05.363Z,1009.12
2022-12-28T10:03:05.609Z,1009.10
2022-12-28T10:04:05.815Z,1009.06
2022-12-28T10:05:06.120Z,1009.19
2022-12-28T10:06:06.433Z,1009.11
2022-12-28T10:07:06.664Z,1009.08
2022-12-28T10:08:06.977Z,1009.10
2022-12-28T10:09:07.295Z,1009.13
2022-12-28T10:10:07.588Z,1009.11
2022-12-28T10:11:07.941Z,1009.07
2022-12-28T10:12:08.316Z,1009.07
2022-12-28T10:13:16.571Z,1009.10
2022-12-28T10:14:09.933Z,1009.11
2022-12-28T10:15:09.177Z,1009.10
2022-12-28T10:16:09.574Z,1009.11
2022-12-28T10:17:09.844Z,1009.08
2022-12-28T10:18:10.150Z,1009.04
2022-12-28T10:19:10.544Z,1009.09
2022-12-28T10:20:10.712Z,1009.11
2022-12-28T10:21:11.029Z,1009.11
2022-12-28T10:22:11.352Z,1009.09
2022-12-28T10:23:11.666Z,1009.08
2022-12-28T10:24:30.929Z,1009.05
2022-12-28T10:25:13.277Z,1009.05
2022-12-28T10:26:12.508Z,1009.04
2022-12-28T10:27:12.885Z,1009.06
2022-12-28T10:28:13.197Z,1009.08
2022-12-28T10:29:13.461Z,1009.02
2022-12-28T10:30:13.750Z,1009.08
2022-12-28T10:31:14.178Z,1009.00
2022-12-28T10:32:14.396Z,1009.01
2022-12-28T10:33:14.620Z,1008.96
2022-12-28T10:34:15.012Z,1008.97
2022-12-28T10:35:15.246Z,1008.92
2022-12-28T10:36:15.525Z,1008.89
2022-12-28T10:37:15.968Z,1008.86
2022-12-28T10:38:16.092Z,1008.85
2022-12-28T10:39:16.310Z,1008.89
2022-12-28T10:40:16.621Z,1008.80
2022-12-28T10:41:17.119Z,1008.79
2022-12-28T10:42:17.195Z,1008.88
2022-12-28T10:43:17.463Z,1008.77
2022-12-28T10:45:19.125Z,1008.80
2022-12-28T10:46:18.467Z,1008.72
2022-12-28T10:47:18.676Z,1008.73
2022-12-28T10:48:18.922Z,1008.62
2022-12-28T10:49:19.281Z,1008.71
2022-12-28T10:50:36.646Z,1008.72
2022-12-28T10:51:20.851Z,1008.69
2022-12-28T10:52:20.102Z,1008.63
2022-12-28T10:53:20.411Z,1008.67
2022-12-28T10:54:27.930Z,1008.64
2022-12-28T10:55:22.031Z,1008.65
2022-12-28T10:56:21.294Z,1008.69
2022-12-28T10:57:21.621Z,1008.63
2022-12-28T10:58:31.267Z,1008.64
2022-12-28T10:59:23.214Z,1008.70
2022-12-28T11:00:22.473Z,1008.62
2022-12-28T11:01:22.845Z,1008.64
2022-12-28T11:02:23.192Z,1008.60
2022-12-28T11:03:23.536Z,1008.59
2022-12-28T11:04:23.790Z,1008.52
2022-12-28T11:05:24.128Z,1008.57
2022-12-28T11:06:27.105Z,1008.60
2022-12-28T11:07:24.700Z,1008.47
2022-12-28T11:08:25.001Z,1008.52
2022-12-28T11:09:25.267Z,1008.50
2022-12-28T11:10:25.589Z,1008.51
2022-12-28T11:11:25.938Z,1008.48
2022-12-28T11:12:26.258Z,1008.53
2022-12-28T11:13:26.551Z,1008.46
2022-12-28T11:14:26.940Z,1008.51
2022-12-28T11:15:34.778Z,1008.51
2022-12-28T11:16:27.592Z,1008.56
2022-12-28T11:17:27.808Z,1008.53
2022-12-28T11:18:30.832Z,1008.45
2022-12-28T11:19:29.418Z,1008.47
2022-12-28T11:20:28.676Z,1008.54
2022-12-28T11:21:28.988Z,1008.57
2022-12-28T11:22:29.314Z,1008.48
2022-12-28T11:23:29.616Z,1008.58
2022-12-28T11:24:33.479Z,1008.48
2022-12-28T11:25:31.220Z,1008.49
2022-12-28T11:26:30.603Z,1008.49
2022-12-28T11:27:30.896Z,1008.47
2022-12-28T11:28:31.237Z,1008.44
2022-12-28T11:29:31.511Z,1008.49
2022-12-28T11:30:31.820Z,1008.45
2022-12-28T11:31:32.074Z,1008.43
2022-12-28T11:32:32.266Z,1008.45
2022-12-28T11:33:32.600Z,1008.38
2022-12-28T11:34:32.979Z,1008.44
2022-12-28T11:35:33.274Z,1008.48
2022-12-28T11:36:33.598Z,1008.40
2022-12-28T11:37:33.925Z,1008.36
2022-12-28T11:38:34.232Z,1008.39
2022-12-28T11:39:34.585Z,1008.28
2022-12-28T11:40:34.738Z,1008.25
2022-12-28T11:41:35.073Z,1008.25
2022-12-28T11:42:40.434Z,1008.27
2022-12-28T11:43:36.695Z,1008.32
2022-12-28T11:44:35.927Z,1008.28
2022-12-28T11:45:36.280Z,1008.24
2022-12-28T11:46:36.477Z,1008.18
2022-12-28T11:47:36.826Z,1008.26
2022-12-28T11:48:37.148Z,1008.26
2022-12-28T11:49:37.448Z,1008.30
2022-12-28T11:50:37.804Z,1008.27
2022-12-28T11:51:38.144Z,1008.23
2022-12-28T11:52:38.408Z,1008.23
2022-12-28T11:53:38.728Z,1008.21
2022-12-28T11:54:39.109Z,1008.20
2022-12-28T11:55:39.413Z,1008.14
2022-12-28T11:56:39.745Z,1008.22
2022-12-28T11:57:40.057Z,1008.19
2022-12-28T11:58:40.381Z,1008.16
2022-12-28T11:59:40.694Z,1008.12
2022-12-28T12:00:40.969Z,1008.19
2022-12-28T12:01:41.386Z,1008.24
2022-12-28T12:02:41.685Z,1008.27
2022-12-28T12:03:41.908Z,1008.25
2022-12-28T12:04:42.237Z,1008.22
2022-12-28T12:05:42.515Z,1008.25
2022-12-28T12:06:42.863Z,1008.22
2022-12-28T12:07:43.216Z,1008.13
2022-12-28T12:08:43.502Z,1008.18
2022-12-28T12:09:43.886Z,1008.17
2022-12-28T12:10:44.170Z,1008.09